Time;durP1;ratioP1;P1;durP2;ratioP2;P2;SDS_P1;SDS_P2;PMS_P1;PMS_P2;Temp;Humidity;BMP_temperature;BMP_pressure;BME280_temperature;BME280_humidity;BME280_pressure;Samples;Min_cycle;Max_cycle;Signal;HPM_P1;HPM_P2
2021/09/30 02:59:49;;;;;;;5.10;2.42;;;17.00;91.70;;;;;;4766836;30;20099;-80
2021/09/30 03:02:18;;;;;;;4.55;2.60;;;17.00;91.70;;;;;;4752007;30;20038;-80
2021/09/30 03:04:45;;;;;;;6.47;2.55;;;17.00;91.70;;;;;;4751739;30;20031;-80
2021/09/30 03:07:14;;;;;;;2.58;2.20;;;17.00;91.70;;;;;;4752234;30;20038;-79
2021/09/30 03:09:43;;;;;;;4.07;2.08;;;17.00;91.30;;;;;;4766788;30;20227;-79
2021/09/30 03:12:25;;;;;;;4.80;2.50;;;16.90;91.20;;;;;;4752543;30;20043;-79
2021/09/30 03:15:02;;;;;;;4.28;2.10;;;16.90;91.00;;;;;;4752781;30;20039;-79
2021/09/30 03:17:42;;;;;;;3.17;1.75;;;16.90;91.00;;;;;;4753335;30;20032;-79
2021/09/30 03:20:33;;;;;;;2.03;1.58;;;16.90;90.90;;;;;;4749269;30;20064;-81
2021/09/30 03:23:03;;;;;;;2.20;1.65;;;16.90;90.80;;;;;;4765390;30;20322;-79
2021/09/30 03:25:30;;;;;;;2.90;1.88;;;16.90;90.80;;;;;;4734848;30;20058;-80
2021/09/30 03:27:56;;;;;;;3.63;1.80;;;16.90;90.90;;;;;;4734740;30;20036;-80
2021/09/30 03:30:27;;;;;;;3.42;2.03;;;16.90;90.80;;;;;;4734503;30;20032;-80
2021/09/30 03:32:57;;;;;;;3.38;1.70;;;16.90;90.60;;;;;;4734862;30;20036;-80
2021/09/30 03:35:31;;;;;;;2.70;1.40;;;16.80;90.50;;;;;;4735497;30;20107;-80
2021/09/30 03:37:59;;;;;;;4.88;1.70;;;16.80;90.70;;;;;;4749149;30;20105;-80
2021/09/30 03:40:25;;;;;;;3.05;1.70;;;16.80;90.80;;;;;;4749072;30;20339;-80
2021/09/30 03:42:51;;;;;;;7.47;1.70;;;16.80;90.70;;;;;;4749059;30;20113;-80
2021/09/30 03:45:17;;;;;;;5.13;1.70;;;16.80;90.70;;;;;;4748764;30;20104;-80
2021/09/30 03:47:55;;;;;;;1.75;1.40;;;16.80;90.70;;;;;;4764918;30;20039;-81
2021/09/30 03:50:25;;;;;;;5.50;1.50;;;16.80;90.70;;;;;;4748947;30;20060;-81
2021/09/30 04:00:45;;;;;;;3.30;1.40;;;16.70;90.90;;;;;;4763315;30;20278;-81
2021/09/30 04:03:11;;;;;;;2.80;1.70;;;16.70;91.00;;;;;;4748798;30;20040;-81
2021/09/30 04:05:40;;;;;;;8.40;1.45;;;16.70;91.00;;;;;;4748525;30;20036;-81
2021/09/30 04:08:06;;;;;;;4.55;1.63;;;16.70;91.10;;;;;;4748456;30;20032;-82
2021/09/30 04:10:32;;;;;;;5.30;1.25;;;16.60;91.00;;;;;;4747380;30;20111;-82
2021/09/30 04:12:58;;;;;;;3.85;2.47;;;16.60;91.20;;;;;;4748527;30;20028;-82
2021/09/30 04:15:24;;;;;;;4.80;1.60;;;16.50;91.20;;;;;;4748471;30;20046;-82
2021/09/30 04:17:50;;;;;;;2.05;1.27;;;16.50;91.20;;;;;;4764489;30;20623;-81
2021/09/30 04:20:17;;;;;;;5.93;1.50;;;16.50;91.30;;;;;;4751424;30;20277;-81
2021/09/30 04:22:44;;;;;;;7.88;2.10;;;16.50;91.40;;;;;;4766201;30;20358;-82
2021/09/30 04:25:11;;;;;;;3.72;1.60;;;16.50;91.30;;;;;;4751366;30;20239;-81
2021/09/30 04:27:38;;;;;;;9.60;1.83;;;16.50;91.40;;;;;;4751344;30;20028;-81
2021/09/30 04:30:06;;;;;;;2.38;1.70;;;16.50;91.40;;;;;;4751641;30;20043;-81
2021/09/30 04:32:44;;;;;;;4.05;1.60;;;16.50;91.50;;;;;;4765858;30;20070;-81
2021/09/30 04:35:10;;;;;;;2.78;1.73;;;16.50;91.60;;;;;;4765930;30;20032;-81
2021/09/30 04:37:36;;;;;;;8.73;1.70;;;16.40;91.70;;;;;;4765797;30;20039;-81
2021/09/30 04:40:03;;;;;;;3.63;1.52;;;16.40;91.80;;;;;;4751099;30;20044;-81
2021/09/30 04:42:29;;;;;;;6.20;1.40;;;16.30;91.90;;;;;;4751328;30;20036;-82
2021/09/30 04:44:55;;;;;;;7.35;2.22;;;16.30;92.00;;;;;;4750934;30;20087;-81
2021/09/30 04:47:21;;;;;;;3.30;2.03;;;16.30;92.00;;;;;;4765252;30;20039;-81
2021/09/30 04:49:58;;;;;;;8.20;1.88;;;16.30;92.10;;;;;;4767028;30;20300;-81
2021/09/30 04:52:24;;;;;;;3.50;1.75;;;16.30;92.00;;;;;;4750367;30;20043;-81
2021/09/30 04:54:51;;;;;;;5.15;1.92;;;16.30;92.00;;;;;;4765301;30;20518;-80
2021/09/30 04:57:17;;;;;;;6.57;2.20;;;16.30;92.20;;;;;;4764946;30;20038;-81
2021/09/30 04:59:43;;;;;;;5.30;2.37;;;16.30;92.10;;;;;;4750178;30;20080;-81
2021/09/30 05:02:27;;;;;;;3.03;1.88;;;16.20;91.90;;;;;;4767160;30;20043;-81
2021/09/30 05:04:53;;;;;;;3.78;2.03;;;16.30;92.00;;;;;;4751405;30;20107;-81
2021/09/30 05:07:19;;;;;;;5.88;2.63;;;16.30;92.00;;;;;;4751043;30;20220;-81
2021/09/30 05:09:47;;;;;;;6.35;2.10;;;16.30;92.00;;;;;;4751228;30;20111;-81
2021/09/30 05:12:15;;;;;;;5.28;2.50;;;16.30;92.00;;;;;;4750714;30;20036;-80
2021/09/30 05:14:42;;;;;;;5.75;2.38;;;16.30;92.00;;;;;;4755926;30;20072;-81
2021/09/30 05:17:09;;;;;;;6.25;2.42;;;16.30;92.00;;;;;;4768102;30;20042;-81
2021/09/30 05:19:37;;;;;;;3.38;2.10;;;16.30;92.00;;;;;;4750864;30;20316;-80
2021/09/30 05:22:03;;;;;;;9.00;2.45;;;16.30;92.00;;;;;;4753709;30;20043;-81
2021/09/30 05:24:30;;;;;;;3.67;1.80;;;16.30;92.10;;;;;;4747941;30;20224;-80
2021/09/30 05:26:55;;;;;;;5.38;1.80;;;16.30;92.10;;;;;;4750668;30;20043;-81
2021/09/30 05:29:22;;;;;;;5.60;2.40;;;16.40;92.10;;;;;;4767821;30;20031;-81
2021/09/30 05:32:05;;;;;;;4.32;1.92;;;16.40;92.10;;;;;;4767991;30;20031;-81
2021/09/30 05:34:31;;;;;;;5.40;1.77;;;16.40;92.00;;;;;;4768402;30;20055;-81
2021/09/30 05:36:57;;;;;;;3.72;2.05;;;16.40;92.00;;;;;;4753322;30;20031;-81
2021/09/30 05:39:23;;;;;;;3.65;1.88;;;16.40;92.10;;;;;;4753110;30;20036;-81
2021/09/30 05:41:49;;;;;;;4.43;2.20;;;16.40;92.10;;;;;;4767680;30;20070;-82
2021/09/30 05:44:21;;;;;;;3.72;2.08;;;16.40;92.10;;;;;;4768057;30;20028;-81
2021/09/30 05:46:52;;;;;;;5.82;1.98;;;16.50;92.10;;;;;;4767246;30;20060;-81
2021/09/30 05:49:20;;;;;;;3.60;1.98;;;16.40;92.10;;;;;;4763909;30;20047;-81
2021/09/30 05:51:50;;;;;;;6.72;2.30;;;16.40;92.10;;;;;;4749149;30;20073;-81
2021/09/30 05:54:35;;;;;;;7.00;1.80;;;16.40;92.20;;;;;;4745918;30;20047;-80
2021/09/30 05:57:13;;;;;;;5.10;1.83;;;16.30;92.20;;;;;;4745298;30;20042;-81
2021/09/30 05:59:40;;;;;;;7.57;2.00;;;16.40;92.30;;;;;;4748944;30;20048;-81
2021/09/30 06:10:20;;;;;;;5.78;2.10;;;16.50;92.00;;;;;;4711657;30;20045;-81
2021/09/30 06:12:52;;;;;;;3.88;1.88;;;16.50;92.10;;;;;;4700313;30;20041;-81
2021/09/30 06:15:30;;;;;;;5.28;2.13;;;16.50;92.00;;;;;;4729164;30;20060;-81
2021/09/30 06:17:58;;;;;;;7.00;2.83;;;16.50;91.90;;;;;;4698445;30;20179;-81
2021/09/30 06:20:25;;;;;;;9.40;2.25;;;16.60;91.90;;;;;;4699577;30;20075;-81
2021/09/30 06:22:52;;;;;;;10.38;1.90;;;16.70;91.90;;;;;;4728513;30;20087;-81
2021/09/30 06:25:18;;;;;;;12.48;2.40;;;16.70;91.50;;;;;;4714438;30;20033;-81
2021/09/30 06:27:46;;;;;;;6.53;2.25;;;16.70;91.40;;;;;;4713715;30;20083;-81
2021/09/30 06:30:12;;;;;;;10.35;2.00;;;16.70;91.40;;;;;;4713983;30;20415;-82
2021/09/30 06:32:41;;;;;;;3.92;2.28;;;16.70;91.40;;;;;;4699068;30;20108;-82
2021/09/30 06:35:39;;;;;;;5.40;1.75;;;16.80;91.20;;;;;;4717527;30;20037;-81
2021/09/30 06:38:05;;;;;;;5.97;1.98;;;16.80;91.00;;;;;;4712860;30;20044;-81
2021/09/30 06:40:31;;;;;;;6.35;1.90;;;16.80;91.00;;;;;;4705780;30;20035;-82
2021/09/30 06:42:58;;;;;;;6.30;1.52;;;16.80;91.00;;;;;;4742335;30;20034;-82
2021/09/30 06:45:56;;;;;;;3.45;1.75;;;16.80;90.90;;;;;;4727949;30;20053;-81
2021/09/30 06:48:44;;;;;;;3.95;1.83;;;16.80;90.90;;;;;;4715243;30;20045;-82
2021/09/30 06:51:19;;;;;;;6.60;2.70;;;16.80;90.90;;;;;;4728317;30;20077;-80
2021/09/30 06:53:48;;;;;;;5.28;2.13;;;16.70;90.60;;;;;;4713422;30;20033;-81
2021/09/30 06:56:19;;;;;;;3.80;2.08;;;16.80;90.90;;;;;;4713810;30;20100;-80
2021/09/30 06:59:05;;;;;;;4.90;2.10;;;16.80;91.10;;;;;;4728061;30;20051;-80
2021/09/30 07:01:50;;;;;;;7.38;2.00;;;16.90;91.00;;;;;;4728104;30;20122;-81
2021/09/30 07:04:36;;;;;;;5.80;1.90;;;17.00;90.80;;;;;;4727860;30;20052;-79
2021/09/30 07:07:38;;;;;;;6.93;1.38;;;17.10;90.50;;;;;;4717475;30;20034;-81
2021/09/30 07:10:05;;;;;;;6.20;1.35;;;17.10;90.10;;;;;;4681784;30;20102;-81
2021/09/30 07:12:32;;;;;;;3.75;1.45;;;17.10;90.00;;;;;;4696416;30;20042;-81
2021/09/30 07:14:57;;;;;;;5.03;1.52;;;17.10;89.90;;;;;;4681878;30;20107;-81
2021/09/30 07:17:24;;;;;;;3.50;1.35;;;17.20;89.90;;;;;;4681534;30;20369;-81
2021/09/30 07:19:50;;;;;;;7.97;1.55;;;17.20;89.50;;;;;;4695977;30;20357;-80
2021/09/30 07:22:16;;;;;;;3.33;1.60;;;17.20;89.00;;;;;;4738681;30;20054;-80
2021/09/30 07:24:42;;;;;;;4.78;1.65;;;17.20;89.50;;;;;;4748429;30;20133;-80
2021/09/30 07:27:09;;;;;;;1.85;1.38;;;17.20;88.10;;;;;;4747777;30;20150;-82
2021/09/30 07:29:35;;;;;;;4.00;1.80;;;17.30;89.50;;;;;;4732234;30;20044;-81
2021/09/30 07:32:03;;;;;;;3.87;1.80;;;17.40;88.80;;;;;;4764912;30;20070;-81
2021/09/30 07:34:29;;;;;;;6.43;1.77;;;17.50;88.80;;;;;;4751014;30;20046;-82
2021/09/30 07:36:56;;;;;;;3.80;2.40;;;17.40;88.30;;;;;;4752221;30;20390;-82
2021/09/30 07:39:22;;;;;;;3.55;1.38;;;17.50;88.30;;;;;;4733223;30;20040;-82
2021/09/30 07:41:49;;;;;;;2.88;1.42;;;17.60;88.20;;;;;;4733298;30;20064;-82
2021/09/30 07:44:16;;;;;;;;;;;17.60;87.90;;;;;;4733867;30;20039;-82
2021/09/30 07:46:43;;;;;;;4.45;1.92;;;17.60;87.70;;;;;;4741299;30;19918;-82
2021/09/30 07:49:09;;;;;;;5.97;2.17;;;17.70;87.10;;;;;;4751433;30;20085;-82
2021/09/30 07:51:37;;;;;;;2.55;1.67;;;17.80;87.10;;;;;;4751265;30;20031;-82
2021/09/30 07:54:05;;;;;;;6.07;2.00;;;17.90;86.40;;;;;;4766060;30;20069;-82
2021/09/30 07:56:32;;;;;;;4.65;1.38;;;18.00;86.10;;;;;;4751292;30;20042;-82
2021/09/30 07:58:58;;;;;;;7.18;1.98;;;17.90;84.90;;;;;;4750897;30;20103;-82
2021/09/30 08:01:24;;;;;;;6.53;1.40;;;18.00;84.70;;;;;;4751133;30;20043;-82
2021/09/30 08:03:50;;;;;;;3.88;1.10;;;18.10;83.30;;;;;;4751246;30;20031;-82
2021/09/30 08:06:17;;;;;;;5.40;1.33;;;18.10;83.50;;;;;;4751409;30;20394;-82
2021/09/30 08:08:42;;;;;;;2.75;1.20;;;18.20;82.60;;;;;;4765813;30;20214;-82
2021/09/30 08:11:08;;;;;;;2.17;1.05;;;18.20;83.00;;;;;;4781584;30;20055;-82
2021/09/30 08:13:35;;;;;;;6.03;1.05;;;18.30;82.60;;;;;;4750684;30;20039;-82
2021/09/30 08:16:00;;;;;;;4.68;0.90;;;18.40;81.80;;;;;;4748083;30;20047;-83
2021/09/30 08:18:27;;;;;;;2.67;0.77;;;18.40;81.30;;;;;;4735678;30;20036;-81
2021/09/30 08:20:53;;;;;;;3.93;1.20;;;18.50;80.40;;;;;;4739901;30;20036;-81
2021/09/30 08:23:21;;;;;;;5.50;1.55;;;18.50;80.30;;;;;;4748404;30;20036;-81
2021/09/30 08:25:47;;;;;;;5.13;0.82;;;18.60;80.10;;;;;;4765593;30;20130;-82
2021/09/30 08:28:13;;;;;;;5.78;1.48;;;18.60;80.10;;;;;;4761836;30;20126;-81
2021/09/30 08:30:40;;;;;;;2.38;1.33;;;18.70;79.80;;;;;;4751972;30;20046;-82
2021/09/30 08:33:09;;;;;;;;;;;18.60;78.80;;;;;;4765827;30;20040;-81
2021/09/30 08:35:36;;;;;;;5.95;1.50;;;18.60;79.80;;;;;;4781586;30;19909;-81
2021/09/30 08:38:02;;;;;;;1.93;1.00;;;18.70;80.30;;;;;;4747742;30;20070;-81
2021/09/30 08:40:28;;;;;;;9.37;1.20;;;19.00;80.00;;;;;;4756964;30;20319;-81
2021/09/30 08:42:55;;;;;;;1.02;0.85;;;19.20;78.80;;;;;;4769175;30;20269;-81
2021/09/30 08:45:22;;;;;;;6.43;1.20;;;19.40;79.00;;;;;;4754152;30;20031;-81
2021/09/30 08:47:58;;;;;;;10.02;1.75;;;19.60;77.70;;;;;;4781978;30;20032;-81
2021/09/30 08:50:24;;;;;;;9.63;1.57;;;19.70;77.00;;;;;;4769042;30;20142;-81
2021/09/30 08:52:50;;;;;;;5.77;1.50;;;19.80;75.30;;;;;;4753958;30;20035;-81
2021/09/30 08:55:16;;;;;;;1.83;1.20;;;19.80;74.50;;;;;;4768740;30;20036;-81
2021/09/30 08:57:50;;;;;;;4.95;1.30;;;19.60;75.40;;;;;;4776255;30;20054;-81
2021/09/30 09:00:18;;;;;;;3.78;1.58;;;19.40;74.90;;;;;;4781874;30;20065;-83
2021/09/30 09:02:49;;;;;;;6.18;1.55;;;19.30;75.00;;;;;;4754925;30;20042;-81
2021/09/30 09:05:17;;;;;;;2.47;1.05;;;19.40;75.40;;;;;;4769651;30;20074;-81
2021/09/30 09:07:59;;;;;;;8.13;1.70;;;19.60;74.70;;;;;;4769057;30;20077;-81
2021/09/30 09:10:29;;;;;;;2.53;1.42;;;19.60;74.00;;;;;;4750507;30;20031;-82
2021/09/30 09:13:01;;;;;;;4.18;0.70;;;19.80;74.00;;;;;;4767576;30;20024;-82
2021/09/30 09:15:34;;;;;;;3.17;0.98;;;20.00;72.40;;;;;;4751728;30;20036;-82
2021/09/30 09:18:42;;;;;;;1.85;0.93;;;20.20;72.10;;;;;;4753732;30;20047;-82
2021/09/30 09:21:09;;;;;;;1.48;0.63;;;20.40;69.40;;;;;;4697572;30;20112;-81
2021/09/30 09:23:56;;;;;;;2.13;1.02;;;20.20;67.30;;;;;;4682889;30;20117;-81
2021/09/30 09:26:22;;;;;;;;;;;19.90;69.70;;;;;;4698082;30;20049;-81
2021/09/30 09:29:02;;;;;;;7.77;1.43;;;19.70;68.60;;;;;;4683604;30;19911;-80
2021/09/30 09:31:33;;;;;;;5.93;1.83;;;19.90;70.50;;;;;;4684590;30;20041;-80
2021/09/30 09:34:41;;;;;;;7.93;1.10;;;20.00;68.70;;;;;;4683799;30;20331;-80
2021/09/30 09:37:38;;;;;;;1.77;0.88;;;20.30;67.30;;;;;;4681205;30;20052;-80
2021/09/30 09:40:14;;;;;;;8.55;1.10;;;20.30;67.50;;;;;;4696535;30;20056;-78
2021/09/30 09:42:40;;;;;;;8.65;1.15;;;20.30;66.60;;;;;;4681464;30;20053;-84
2021/09/30 09:45:10;;;;;;;15.93;1.20;;;20.10;66.90;;;;;;4695826;30;20030;-80
2021/09/30 09:47:38;;;;;;;27.23;4.32;;;20.10;67.70;;;;;;4674340;30;20114;-82
2021/09/30 09:50:23;;;;;;;6.75;0.88;;;20.00;66.30;;;;;;4677267;30;20034;-79
2021/09/30 09:52:58;;;;;;;1.67;0.70;;;19.90;67.30;;;;;;4684477;30;20030;-81
2021/09/30 09:55:38;;;;;;;4.18;1.52;;;19.80;67.00;;;;;;4688569;30;20076;-81
2021/09/30 09:58:10;;;;;;;2.22;0.88;;;19.80;66.60;;;;;;4711908;30;20068;-79
2021/09/30 10:00:58;;;;;;;1.67;0.70;;;20.20;69.30;;;;;;4715736;30;20052;-78
2021/09/30 10:03:27;;;;;;;1.98;0.88;;;20.50;66.90;;;;;;4729497;30;20234;-80
2021/09/30 10:05:54;;;;;;;2.17;0.93;;;20.70;66.30;;;;;;4715584;30;20028;-79
2021/09/30 10:08:21;;;;;;;3.25;0.90;;;20.80;64.70;;;;;;4701292;30;20041;-78
2021/09/30 10:10:48;;;;;;;1.73;1.10;;;21.00;62.30;;;;;;4716042;30;20041;-81
2021/09/30 10:13:16;;;;;;;2.42;0.70;;;21.10;61.40;;;;;;4720265;30;20040;-81
2021/09/30 10:15:43;;;;;;;3.55;0.90;;;21.00;60.40;;;;;;4735174;30;20040;-81
2021/09/30 10:18:11;;;;;;;5.95;1.08;;;20.70;60.80;;;;;;4736317;30;20024;-80
2021/09/30 10:20:38;;;;;;;2.33;0.65;;;20.50;61.10;;;;;;4749491;30;20044;-79
2021/09/30 10:23:06;;;;;;;;;;;20.40;63.80;;;;;;4750564;30;20032;-80
2021/09/30 10:25:38;;;;;;;1.75;0.63;;;20.80;64.70;;;;;;4739699;30;19910;-82
2021/09/30 10:28:06;;;;;;;5.25;0.75;;;21.20;60.20;;;;;;4767590;30;20066;-79
2021/09/30 10:30:41;;;;;;;2.95;0.75;;;21.30;60.80;;;;;;4766732;30;20062;-80
2021/09/30 10:33:13;;;;;;;2.95;0.50;;;21.40;62.20;;;;;;4764668;30;20051;-85
2021/09/30 10:35:53;;;;;;;1.20;0.47;;;21.30;58.70;;;;;;4766915;30;20051;-80
2021/09/30 10:38:19;;;;;;;3.08;0.75;;;21.00;60.30;;;;;;4762654;30;20040;-80
2021/09/30 10:41:06;;;;;;;4.35;0.65;;;20.60;58.60;;;;;;4765779;30;20040;-80
2021/09/30 10:43:41;;;;;;;1.77;0.70;;;20.40;59.20;;;;;;4765902;30;20042;-80
2021/09/30 10:46:30;;;;;;;3.15;0.80;;;20.20;60.00;;;;;;4764758;30;20060;-80
2021/09/30 10:48:57;;;;;;;4.05;1.10;;;20.10;61.50;;;;;;4780073;30;20043;-80
2021/09/30 10:51:23;;;;;;;3.33;0.73;;;19.80;61.30;;;;;;4752400;30;20035;-80
2021/09/30 10:53:50;;;;;;;1.85;0.77;;;19.60;61.40;;;;;;4767359;30;20280;-79
2021/09/30 10:56:31;;;;;;;4.80;1.10;;;19.50;61.70;;;;;;4752670;30;20107;-79
2021/09/30 10:59:09;;;;;;;4.88;1.05;;;19.50;62.80;;;;;;4765128;30;20031;-79
2021/09/30 11:01:47;;;;;;;4.18;0.88;;;19.60;63.20;;;;;;4767326;30;20043;-79
2021/09/30 11:04:16;;;;;;;3.45;0.80;;;19.70;62.90;;;;;;4755357;30;20133;-79
2021/09/30 11:06:42;;;;;;;4.10;0.80;;;19.80;62.40;;;;;;4783458;30;20034;-79
2021/09/30 11:09:14;;;;;;;3.00;0.93;;;19.90;61.50;;;;;;4767482;30;20334;-79
2021/09/30 11:11:41;;;;;;;1.33;0.45;;;20.00;61.90;;;;;;4767117;30;20039;-79
2021/09/30 11:14:07;;;;;;;;;;;20.20;62.00;;;;;;4752434;30;20024;-79
2021/09/30 11:16:42;;;;;;;3.35;0.70;;;20.30;61.10;;;;;;4751183;30;19924;-79
2021/09/30 11:19:29;;;;;;;1.95;0.55;;;20.40;60.50;;;;;;4766982;30;20300;-79
2021/09/30 11:22:01;;;;;;;1.15;0.40;;;20.50;60.50;;;;;;4767127;30;20039;-79
2021/09/30 11:24:56;;;;;;;3.78;0.70;;;20.40;59.10;;;;;;4782579;30;20034;-79
2021/09/30 11:27:29;;;;;;;1.98;0.73;;;20.30;58.90;;;;;;4767005;30;20342;-79
2021/09/30 11:30:24;;;;;;;0.98;0.50;;;20.20;61.00;;;;;;4767058;30;20039;-79
2021/09/30 11:32:55;;;;;;;4.68;0.80;;;20.20;60.00;;;;;;4751085;30;20040;-79
2021/09/30 11:35:21;;;;;;;9.52;1.10;;;20.20;61.70;;;;;;4749196;30;20039;-79
2021/09/30 11:37:47;;;;;;;6.65;1.27;;;20.30;60.20;;;;;;4734518;30;20043;-79
2021/09/30 11:40:16;;;;;;;5.32;0.60;;;20.30;58.50;;;;;;4756441;30;20023;-79
2021/09/30 11:42:46;;;;;;;4.97;0.88;;;20.00;58.10;;;;;;4751529;30;20039;-79
2021/09/30 11:45:21;;;;;;;4.78;2.00;;;19.80;58.90;;;;;;4765584;30;20027;-79
2021/09/30 11:47:49;;;;;;;5.43;1.15;;;19.70;58.90;;;;;;4751985;30;20040;-79
2021/09/30 11:50:26;;;;;;;3.28;0.73;;;19.70;60.40;;;;;;4765126;30;20039;-79
2021/09/30 11:53:11;;;;;;;3.25;0.70;;;19.70;60.50;;;;;;4766196;30;20035;-79
2021/09/30 11:55:41;;;;;;;9.07;1.08;;;19.70;60.10;;;;;;4766258;30;20399;-79
2021/09/30 11:58:09;;;;;;;2.78;0.90;;;19.50;60.40;;;;;;4766153;30;20046;-79
2021/09/30 12:00:37;;;;;;;6.97;1.00;;;19.50;59.80;;;;;;4766255;30;20023;-79
2021/09/30 12:03:05;;;;;;;4.50;0.75;;;19.40;61.00;;;;;;4766321;30;20031;-79
2021/09/30 12:05:37;;;;;;;1.73;0.70;;;19.30;61.50;;;;;;4751718;30;20020;-79
2021/09/30 12:08:06;;;;;;;8.73;1.00;;;19.30;60.30;;;;;;4752020;30;20358;-79
2021/09/30 12:10:34;;;;;;;3.55;0.80;;;19.30;60.10;;;;;;4766251;30;20023;-79
2021/09/30 12:13:18;;;;;;;2.35;0.52;;;19.30;60.90;;;;;;4766501;30;20062;-79
2021/09/30 12:15:44;;;;;;;3.65;1.08;;;19.30;60.70;;;;;;4765959;30;20071;-79
2021/09/30 12:18:19;;;;;;;7.20;1.25;;;19.30;59.70;;;;;;4766263;30;20063;-79
2021/09/30 12:20:50;;;;;;;5.10;0.70;;;19.40;60.10;;;;;;4748087;30;20036;-79
2021/09/30 12:23:16;;;;;;;2.55;0.85;;;19.50;61.30;;;;;;4748503;30;20036;-79
2021/09/30 12:25:42;;;;;;;0.95;0.65;;;19.50;61.20;;;;;;4733887;30;20036;-84
2021/09/30 12:28:08;;;;;;;2.40;0.90;;;19.60;61.00;;;;;;4733733;30;20036;-81
2021/09/30 12:30:39;;;;;;;4.95;1.10;;;19.70;61.30;;;;;;4733423;30;20040;-80
2021/09/30 12:33:05;;;;;;;9.18;1.52;;;19.80;60.90;;;;;;4778565;30;20047;-80
2021/09/30 12:35:37;;;;;;;3.55;0.98;;;19.80;60.90;;;;;;4750897;30;20036;-80
2021/09/30 12:38:10;;;;;;;1.45;0.50;;;19.90;60.80;;;;;;4780924;30;20031;-80
2021/09/30 12:40:38;;;;;;;12.65;1.00;;;20.00;61.40;;;;;;4747816;30;20040;-80
2021/09/30 12:43:13;;;;;;;2.25;0.68;;;20.10;61.30;;;;;;4747489;30;20115;-80
2021/09/30 12:45:43;;;;;;;3.22;0.70;;;20.20;61.00;;;;;;4747301;30;20059;-80
2021/09/30 12:48:09;;;;;;;3.33;0.88;;;20.30;60.30;;;;;;4750517;30;20103;-79
2021/09/30 12:50:48;;;;;;;2.42;0.50;;;20.50;59.50;;;;;;4750736;30;20231;-79
2021/09/30 12:53:17;;;;;;;2.92;0.80;;;20.80;58.00;;;;;;4780280;30;20036;-79
2021/09/30 12:55:44;;;;;;;6.22;0.90;;;21.20;56.00;;;;;;4747003;30;20608;-79
2021/09/30 12:58:33;;;;;;;3.78;0.90;;;21.50;56.30;;;;;;4732764;30;20336;-79
2021/09/30 13:01:20;;;;;;;3.55;0.80;;;21.80;55.90;;;;;;4763123;30;20205;-79
2021/09/30 13:04:05;;;;;;;1.27;0.40;;;21.90;55.80;;;;;;4747166;30;20108;-79
2021/09/30 13:06:31;;;;;;;7.15;0.98;;;21.70;52.60;;;;;;4762847;30;20036;-79
2021/09/30 13:08:57;;;;;;;4.17;0.60;;;21.50;53.80;;;;;;4747212;30;20039;-79
2021/09/30 13:11:33;;;;;;;3.83;0.77;;;21.40;54.80;;;;;;4750001;30;20062;-79
2021/09/30 13:14:27;;;;;;;3.83;0.90;;;21.40;56.90;;;;;;4780440;30;20058;-79
2021/09/30 13:16:54;;;;;;;1.30;0.68;;;21.40;54.90;;;;;;4758337;30;20289;-79
2021/09/30 13:19:38;;;;;;;;;;;21.20;55.20;;;;;;4775162;30;20293;-79
2021/09/30 13:22:05;;;;;;;5.03;0.68;;;21.20;55.00;;;;;;4778779;30;19916;-79
2021/09/30 13:24:36;;;;;;;2.70;0.95;;;21.00;55.10;;;;;;4780502;30;20056;-78
2021/09/30 13:27:05;;;;;;;6.55;0.85;;;21.00;55.30;;;;;;4764599;30;20082;-79
2021/09/30 13:29:31;;;;;;;2.40;0.88;;;21.10;54.40;;;;;;4745732;30;20583;-79
2021/09/30 13:31:56;;;;;;;4.38;0.80;;;21.10;55.80;;;;;;4752747;30;20031;-78
2021/09/30 13:34:22;;;;;;;3.15;0.73;;;21.20;55.60;;;;;;4766786;30;20047;-78
2021/09/30 13:36:49;;;;;;;2.10;0.80;;;21.20;54.40;;;;;;4793595;30;20102;-79
2021/09/30 13:39:15;;;;;;;1.80;0.85;;;21.20;54.00;;;;;;4767546;30;20047;-78
2021/09/30 13:41:41;;;;;;;1.85;0.60;;;21.30;56.60;;;;;;4783196;30;20027;-78
2021/09/30 13:44:08;;;;;;;2.97;0.50;;;21.40;54.30;;;;;;4767465;30;20331;-79
2021/09/30 13:46:34;;;;;;;2.40;0.75;;;21.20;54.40;;;;;;4767654;30;20390;-79
2021/09/30 13:48:59;;;;;;;4.60;0.75;;;21.20;55.10;;;;;;4752944;30;20039;-79
2021/09/30 13:51:28;;;;;;;3.90;0.80;;;21.20;54.20;;;;;;4753043;30;20040;-79
2021/09/30 13:53:55;;;;;;;5.60;0.80;;;21.10;54.70;;;;;;4766533;30;20031;-78
2021/09/30 13:56:21;;;;;;;2.43;0.70;;;21.10;55.00;;;;;;4763597;30;20023;-79
2021/09/30 13:58:47;;;;;;;3.60;0.80;;;21.10;54.20;;;;;;4752260;30;20036;-79
2021/09/30 14:01:13;;;;;;;3.55;0.80;;;21.20;54.30;;;;;;4767093;30;20231;-78
2021/09/30 14:03:39;;;;;;;5.95;0.90;;;21.30;53.70;;;;;;4766957;30;20059;-78
2021/09/30 14:06:05;;;;;;;53.20;31.00;;;21.20;53.10;;;;;;4782644;30;20024;-77
2021/09/30 14:08:32;;;;;;;2.58;1.50;;;21.20;53.30;;;;;;4758009;30;20043;-78
2021/09/30 14:10:58;;;;;;;5.63;1.48;;;21.30;53.50;;;;;;4767701;30;20039;-80
2021/09/30 14:13:24;;;;;;;1.13;0.57;;;21.40;53.20;;;;;;4767785;30;20097;-79
2021/09/30 14:15:50;;;;;;;4.03;0.80;;;21.60;54.10;;;;;;4752424;30;20070;-78
2021/09/30 14:18:16;;;;;;;2.20;0.63;;;21.60;52.20;;;;;;4766542;30;20089;-78
2021/09/30 14:20:41;;;;;;;2.33;1.00;;;21.50;52.00;;;;;;4745625;30;20035;-78
2021/09/30 14:23:07;;;;;;;5.60;1.00;;;21.50;53.60;;;;;;4767153;30;20102;-78
2021/09/30 14:25:33;;;;;;;6.60;0.95;;;21.60;53.80;;;;;;4752217;30;20028;-78
2021/09/30 14:27:59;;;;;;;13.60;1.83;;;21.70;53.70;;;;;;4767462;30;20034;-78
2021/09/30 14:30:24;;;;;;;23.23;2.25;;;21.70;52.80;;;;;;4773050;30;20044;-78
2021/09/30 14:32:51;;;;;;;27.65;1.60;;;21.60;53.30;;;;;;4756728;30;20031;-78
2021/09/30 14:35:18;;;;;;;3.90;1.13;;;21.60;53.80;;;;;;4750398;30;20093;-79
2021/09/30 14:37:47;;;;;;;2.38;0.90;;;21.50;53.30;;;;;;4751948;30;20039;-79
2021/09/30 14:40:14;;;;;;;40.30;3.85;;;21.40;51.90;;;;;;4752106;30;20039;-79
2021/09/30 14:42:40;;;;;;;7.60;1.20;;;21.40;52.50;;;;;;4766755;30;20117;-79
2021/09/30 14:45:06;;;;;;;8.13;0.87;;;21.20;52.90;;;;;;4766394;30;20028;-79
2021/09/30 14:47:32;;;;;;;6.30;0.65;;;21.00;52.40;;;;;;4767036;30;20315;-79
2021/09/30 14:49:58;;;;;;;3.25;0.70;;;20.90;52.20;;;;;;4767118;30;20067;-78
2021/09/30 14:52:24;;;;;;;3.13;0.82;;;20.70;53.00;;;;;;4782628;30;20102;-78
2021/09/30 14:54:50;;;;;;;2.05;0.52;;;20.60;53.40;;;;;;4766842;30;20085;-78
2021/09/30 14:57:17;;;;;;;1.58;0.47;;;20.40;53.00;;;;;;4751900;30;20044;-78
2021/09/30 14:59:43;;;;;;;3.80;0.45;;;20.40;53.10;;;;;;4766695;30;20047;-78
2021/09/30 15:02:09;;;;;;;4.18;0.60;;;20.30;53.00;;;;;;4767154;30;20039;-78
2021/09/30 15:04:35;;;;;;;1.83;0.60;;;20.20;52.30;;;;;;4781277;30;20365;-79
2021/09/30 15:07:01;;;;;;;1.63;0.85;;;20.10;52.90;;;;;;4782746;30;20028;-78
2021/09/30 15:09:27;;;;;;;3.50;0.60;;;20.10;53.50;;;;;;4781664;30;20028;-78
2021/09/30 15:11:53;;;;;;;1.83;0.52;;;20.20;54.30;;;;;;4781543;30;20032;-78
2021/09/30 15:14:19;;;;;;;2.58;0.70;;;20.10;53.70;;;;;;4739018;30;20055;-79
2021/09/30 15:16:57;;;;;;;5.50;1.20;;;20.00;53.00;;;;;;4753626;30;20115;-79
2021/09/30 15:19:32;;;;;;;3.30;0.60;;;20.00;53.40;;;;;;4748563;30;20036;-79
2021/09/30 15:21:58;;;;;;;2.00;0.80;;;19.90;53.60;;;;;;4770414;30;20027;-79
2021/09/30 15:24:25;;;;;;;1.25;0.75;;;19.70;53.50;;;;;;4766063;30;20131;-79
2021/09/30 15:26:52;;;;;;;1.02;0.50;;;19.60;54.10;;;;;;4766419;30;20037;-79
2021/09/30 15:29:19;;;;;;;2.80;0.80;;;19.50;54.70;;;;;;4766036;30;20039;-79
2021/09/30 15:31:46;;;;;;;;;;;19.50;53.90;;;;;;4751612;30;20071;-79
2021/09/30 15:34:15;;;;;;;5.00;0.80;;;19.50;54.10;;;;;;4766314;30;19909;-79
2021/09/30 15:36:42;;;;;;;2.50;0.80;;;19.40;55.20;;;;;;4765833;30;20454;-79
2021/09/30 15:39:09;;;;;;;7.03;1.38;;;19.30;56.00;;;;;;4765888;30;20111;-79
2021/09/30 15:41:35;;;;;;;;;;;19.20;56.30;;;;;;4766140;30;20063;-79
2021/09/30 15:44:03;;;;;;;5.32;0.80;;;19.10;57.20;;;;;;4765668;30;19909;-79
2021/09/30 15:46:29;;;;;;;10.77;1.60;;;18.90;57.80;;;;;;4750653;30;20055;-79
2021/09/30 15:48:55;;;;;;;14.32;1.80;;;18.90;58.20;;;;;;4750455;30;20070;-79
2021/09/30 15:51:21;;;;;;;4.72;1.10;;;18.80;59.10;;;;;;4765428;30;20405;-79
2021/09/30 15:53:47;;;;;;;1.85;0.68;;;18.70;59.10;;;;;;4751259;30;20098;-79
2021/09/30 15:56:14;;;;;;;1.75;0.77;;;18.60;58.90;;;;;;4782003;30;20024;-79
2021/09/30 15:58:41;;;;;;;5.90;0.90;;;18.50;59.30;;;;;;4765714;30;20039;-79
2021/09/30 16:01:07;;;;;;;2.65;0.80;;;18.40;59.20;;;;;;4765022;30;20230;-79
2021/09/30 16:03:33;;;;;;;2.33;0.90;;;18.30;59.70;;;;;;4761184;30;20039;-80
2021/09/30 16:05:59;;;;;;;2.53;0.93;;;18.20;60.30;;;;;;4760719;30;20031;-79
2021/09/30 16:08:25;;;;;;;14.27;1.33;;;18.20;60.70;;;;;;4767797;30;20035;-80
2021/09/30 16:10:51;;;;;;;6.47;1.20;;;18.10;60.20;;;;;;4765509;30;20038;-79
2021/09/30 16:13:17;;;;;;;1.25;0.65;;;18.00;61.60;;;;;;4751105;30;20024;-79
2021/09/30 16:15:43;;;;;;;4.00;1.20;;;18.00;62.10;;;;;;4765424;30;20035;-79
2021/09/30 16:18:09;;;;;;;4.47;1.27;;;17.90;62.30;;;;;;4751094;30;20039;-79